Time;durP1;ratioP1;P1;durP2;ratioP2;P2;SDS_P1;SDS_P2;PMS_P1;PMS_P2;Temp;Humidity;BMP_temperature;BMP_pressure;BME280_temperature;BME280_humidity;BME280_pressure;Samples;Min_cycle;Max_cycle;Signal;HPM_P1;HPM_P2
2023/07/06 00:00:52;;;;;;;15.00;4.88;;;;;;;-143.48;100.00;118439.88;5093724;28;20361;-69
2023/07/06 00:03:17;;;;;;;14.68;5.22;;;;;;;-143.48;100.00;118439.88;5093744;28;20047;-68
2023/07/06 00:05:46;;;;;;;11.98;5.10;;;;;;;-143.48;100.00;118439.88;5075381;28;20111;-68
2023/07/06 00:08:13;;;;;;;14.35;5.38;;;;;;;-143.48;100.00;118439.88;5075235;28;20101;-68
2023/07/06 00:10:39;;;;;;;11.90;4.70;;;;;;;-143.48;100.00;118439.88;5075378;28;20076;-68
2023/07/06 00:13:06;;;;;;;12.18;5.15;;;;;;;-143.48;100.00;118439.88;5093424;28;20103;-68
2023/07/06 00:15:35;;;;;;;13.43;5.43;;;;;;;-143.48;100.00;118439.88;5093549;28;20016;-67
2023/07/06 00:18:04;;;;;;;10.15;4.88;;;;;;;-143.48;100.00;118439.88;5075316;28;20024;-68
2023/07/06 00:20:37;;;;;;;13.25;4.90;;;;;;;-143.48;100.00;118439.88;5093567;28;20490;-68
2023/07/06 00:23:03;;;;;;;13.40;4.53;;;;;;;-143.48;100.00;118439.88;5093353;28;20024;-70
2023/07/06 00:25:28;;;;;;;11.18;4.82;;;;;;;-143.48;100.00;118439.88;5093519;28;20024;-68
2023/07/06 00:27:54;;;;;;;11.38;4.38;;;;;;;-143.48;100.00;118439.88;5093270;28;20360;-69
2023/07/06 00:30:30;;;;;;;12.15;4.72;;;;;;;-143.48;100.00;118439.88;5093272;28;20024;-68
2023/07/06 00:32:56;;;;;;;10.50;4.93;;;;;;;-143.48;100.00;118439.88;5093128;28;20026;-68
2023/07/06 00:35:22;;;;;;;11.27;4.90;;;;;;;-143.48;100.00;118439.88;5093198;28;20476;-68
2023/07/06 00:37:49;;;;;;;13.27;4.72;;;;;;;-143.48;100.00;118439.88;5092897;28;20051;-68
2023/07/06 00:40:14;;;;;;;9.68;4.25;;;;;;;-143.48;100.00;118439.88;5074948;28;20368;-69
2023/07/06 00:42:40;;;;;;;7.60;4.38;;;;;;;-143.48;100.00;118439.88;5074892;28;20030;-68
2023/07/06 00:45:09;;;;;;;11.98;4.43;;;;;;;-143.48;100.00;118439.88;5093145;28;20530;-69
2023/07/06 00:47:40;;;;;;;12.85;4.40;;;;;;;-143.48;100.00;118439.88;5093024;28;20391;-69
2023/07/06 00:50:20;;;;;;;14.55;4.70;;;;;;;-143.48;100.00;118439.88;5093135;28;20027;-69
2023/07/06 00:52:52;;;;;;;10.70;4.55;;;;;;;-143.48;100.00;118439.88;5093095;28;20024;-69
2023/07/06 00:55:21;;;;;;;15.27;4.78;;;;;;;-143.48;100.00;118439.88;5093130;28;20035;-69
2023/07/06 00:57:54;;;;;;;13.50;5.05;;;;;;;-143.48;100.00;118439.88;5092997;28;20024;-68
2023/07/06 01:00:21;;;;;;;11.98;4.55;;;;;;;-143.48;100.00;118439.88;5092938;28;20104;-69
2023/07/06 01:02:54;;;;;;;14.45;4.80;;;;;;;-143.48;100.00;118439.88;5092882;28;20077;-69
2023/07/06 01:05:23;;;;;;;11.88;4.82;;;;;;;-143.48;100.00;118439.88;5092974;28;20387;-68
2023/07/06 01:07:51;;;;;;;15.68;5.07;;;;;;;-143.48;100.00;118439.88;5092718;28;20052;-68
2023/07/06 01:10:18;;;;;;;15.20;5.10;;;;;;;-143.48;100.00;118439.88;5074654;28;20020;-70
2023/07/06 01:12:43;;;;;;;15.00;5.05;;;;;;;-143.48;100.00;118439.88;5092784;28;20102;-69
2023/07/06 01:15:09;;;;;;;12.00;4.80;;;;;;;-143.48;100.00;118439.88;5092787;28;20112;-69
2023/07/06 01:18:06;;;;;;;12.45;4.78;;;;;;;-143.48;100.00;118439.88;5092827;28;20020;-69
2023/07/06 01:21:11;;;;;;;11.52;4.57;;;;;;;-143.48;100.00;118439.88;5092729;28;20024;-69
2023/07/06 01:23:42;;;;;;;14.73;5.10;;;;;;;-143.48;100.00;118439.88;5081203;28;20032;-68
2023/07/06 01:26:17;;;;;;;15.63;4.88;;;;;;;-143.48;100.00;118439.88;5092728;28;20024;-69
2023/07/06 01:29:13;;;;;;;16.08;4.90;;;;;;;-143.48;100.00;118439.88;5092683;28;20024;-68
2023/07/06 01:31:54;;;;;;;18.90;4.93;;;;;;;-143.48;100.00;118439.88;5092710;28;20020;-68
2023/07/06 01:34:41;;;;;;;16.10;4.40;;;;;;;-143.48;100.00;118439.88;5092602;28;20074;-68
2023/07/06 01:37:14;;;;;;;17.88;4.70;;;;;;;-143.48;100.00;118439.88;5092761;28;20032;-68
2023/07/06 01:39:40;;;;;;;15.05;5.03;;;;;;;-143.48;100.00;118439.88;5092491;28;20024;-67
2023/07/06 01:42:14;;;;;;;14.93;4.50;;;;;;;-143.48;100.00;118439.88;5092659;28;20034;-68
2023/07/06 01:44:49;;;;;;;13.18;4.45;;;;;;;-143.48;100.00;118439.88;5092557;28;20034;-69
2023/07/06 01:47:18;;;;;;;13.98;4.40;;;;;;;-143.48;100.00;118439.88;5074248;28;20035;-68
2023/07/06 01:49:44;;;;;;;12.57;4.60;;;;;;;-143.48;100.00;118439.88;5095766;28;20398;-69
2023/07/06 01:52:33;;;;;;;13.07;4.15;;;;;;;-143.48;100.00;118439.88;5096350;28;20082;-69
2023/07/06 01:55:23;;;;;;;14.38;4.40;;;;;;;-143.48;100.00;118439.88;5077986;28;20024;-69
2023/07/06 01:57:55;;;;;;;12.30;4.18;;;;;;;-143.48;100.00;118439.88;5078059;28;20035;-69
2023/07/06 02:00:22;;;;;;;13.98;3.95;;;;;;;-143.48;100.00;118439.88;5096148;28;20057;-69
2023/07/06 02:02:51;;;;;;;12.60;4.60;;;;;;;-143.48;100.00;118439.88;5096073;28;20097;-69
2023/07/06 02:05:19;;;;;;;14.90;4.50;;;;;;;-143.48;100.00;118439.88;5096127;28;20051;-69
2023/07/06 02:07:45;;;;;;;16.85;3.85;;;;;;;-143.48;100.00;118439.88;5095745;28;20499;-68
2023/07/06 02:10:15;;;;;;;10.32;3.88;;;;;;;-143.48;100.00;118439.88;5095913;28;20031;-68
2023/07/06 02:12:42;;;;;;;17.42;4.07;;;;;;;-143.48;100.00;118439.88;5095919;28;20423;-68
2023/07/06 02:15:09;;;;;;;11.55;4.18;;;;;;;-143.48;100.00;118439.88;5094434;28;20157;-69
2023/07/06 02:17:36;;;;;;;10.85;3.50;;;;;;;-143.48;100.00;118439.88;5093795;28;20528;-69
2023/07/06 02:20:01;;;;;;;13.20;4.57;;;;;;;-143.48;100.00;118439.88;5075384;28;20024;-69
2023/07/06 02:22:28;;;;;;;16.35;4.32;;;;;;;-143.48;100.00;118439.88;5093678;28;20024;-69
2023/07/06 02:24:53;;;;;;;17.88;3.85;;;;;;;-143.48;100.00;118439.88;5093853;28;20039;-69
2023/07/06 02:27:19;;;;;;;15.18;3.95;;;;;;;-143.48;100.00;118439.88;5075426;28;20395;-69
2023/07/06 02:29:45;;;;;;;14.00;4.25;;;;;;;-143.48;100.00;118439.88;5094169;28;20027;-69
2023/07/06 02:32:11;;;;;;;13.93;4.00;;;;;;;-143.48;100.00;118439.88;5095512;28;20034;-68
2023/07/06 02:34:36;;;;;;;15.85;3.67;;;;;;;-143.48;100.00;118439.88;5095495;28;20091;-68
2023/07/06 02:37:01;;;;;;;10.40;3.72;;;;;;;-143.48;100.00;118439.88;5095382;28;20035;-68
2023/07/06 02:39:27;;;;;;;14.95;3.92;;;;;;;-143.48;100.00;118439.88;5077193;28;20081;-69
2023/07/06 02:41:54;;;;;;;9.80;3.80;;;;;;;-143.49;100.00;65027.28;5077229;28;20020;-68
2023/07/06 02:44:20;;;;;;;17.65;4.22;;;;;;;-143.49;100.00;65027.28;5095102;28;20024;-68
2023/07/06 02:46:49;;;;;;;15.35;4.10;;;;;;;-143.49;100.00;65027.28;5095293;28;20393;-69
2023/07/06 02:49:18;;;;;;;10.75;3.85;;;;;;;-143.49;100.00;65027.28;5095261;28;20030;-69
2023/07/06 02:51:43;;;;;;;15.32;3.90;;;;;;;-143.49;100.00;65027.28;5095016;28;20034;-69
2023/07/06 02:54:13;;;;;;;13.38;4.43;;;;;;;-143.49;100.00;65027.28;5095162;28;20397;-68
2023/07/06 02:56:38;;;;;;;14.35;3.90;;;;;;;-143.49;100.00;65027.28;5094951;28;20503;-68
2023/07/06 02:59:04;;;;;;;14.60;3.75;;;;;;;-143.49;100.00;65027.28;5094536;28;20020;-68
2023/07/06 03:01:29;;;;;;;9.75;4.10;;;;;;;-143.49;100.00;65027.28;5076857;28;20035;-69
2023/07/06 03:03:54;;;;;;;21.20;4.07;;;;;;;-143.49;100.00;65027.28;5094870;28;20032;-69
2023/07/06 03:06:20;;;;;;;10.68;3.97;;;;;;;-143.49;100.00;65027.28;5094808;28;20104;-69
2023/07/06 03:08:46;;;;;;;8.90;4.15;;;;;;;-143.49;100.00;65027.28;5076485;28;20139;-69
2023/07/06 03:11:11;;;;;;;12.77;4.20;;;;;;;-143.49;100.00;65027.28;5094783;28;20058;-69
2023/07/06 03:13:37;;;;;;;14.68;3.97;;;;;;;-143.49;100.00;65027.28;5094684;28;20460;-69
2023/07/06 03:16:04;;;;;;;10.38;4.30;;;;;;;-143.49;100.00;65027.28;5094559;28;20475;-69
2023/07/06 03:18:30;;;;;;;13.25;4.00;;;;;;;-143.49;100.00;65027.28;5094595;28;20073;-70
2023/07/06 03:20:56;;;;;;;11.73;3.80;;;;;;;-143.49;100.00;65027.28;5094543;28;20028;-69
2023/07/06 03:23:21;;;;;;;11.85;3.95;;;;;;;-143.49;100.00;65027.28;5094375;28;20020;-69
2023/07/06 03:25:51;;;;;;;14.02;4.03;;;;;;;-143.49;100.00;65027.28;5076137;28;20506;-69
2023/07/06 03:28:18;;;;;;;13.13;3.92;;;;;;;-143.49;100.00;65027.28;5094396;28;20024;-70
2023/07/06 03:30:43;;;;;;;12.40;4.15;;;;;;;-143.49;100.00;65027.28;5094464;28;20024;-69
2023/07/06 03:33:09;;;;;;;17.30;4.53;;;;;;;-143.49;100.00;65027.28;5094434;28;20027;-69
2023/07/06 03:35:34;;;;;;;15.27;4.38;;;;;;;-143.49;100.00;65027.28;5094204;28;20413;-69
2023/07/06 03:38:00;;;;;;;14.70;4.20;;;;;;;-143.49;100.00;65027.28;5094210;28;20028;-68
2023/07/06 03:40:30;;;;;;;13.02;4.30;;;;;;;-143.49;100.00;65027.28;5094164;28;20024;-68
2023/07/06 03:42:56;;;;;;;14.23;4.35;;;;;;;-143.49;100.00;65027.28;5094015;28;20475;-67
2023/07/06 03:45:23;;;;;;;15.45;3.85;;;;;;;-143.49;100.00;65027.28;5094070;28;20016;-68
2023/07/06 03:47:50;;;;;;;20.08;4.50;;;;;;;-143.49;100.00;65027.28;5094082;28;20046;-68
2023/07/06 03:50:17;;;;;;;18.65;4.20;;;;;;;-143.49;100.00;65027.28;5093945;28;20024;-67
2023/07/06 03:52:44;;;;;;;13.23;4.43;;;;;;;-143.49;100.00;65027.28;5075708;28;20559;-68
2023/07/06 03:55:15;;;;;;;17.05;5.10;;;;;;;-143.49;100.00;65027.28;5093910;28;20024;-69
2023/07/06 03:57:43;;;;;;;22.27;5.38;;;;;;;-143.49;100.00;65027.28;5093899;28;20501;-68
2023/07/06 04:00:17;;;;;;;16.73;4.38;;;;;;;-143.49;100.00;65027.28;5093787;28;20095;-68
2023/07/06 04:02:43;;;;;;;10.88;4.43;;;;;;;-143.49;100.00;65027.28;5075770;28;20077;-68
2023/07/06 04:05:09;;;;;;;14.95;4.10;;;;;;;-143.49;100.00;65027.28;5093799;28;20487;-68
2023/07/06 04:07:34;;;;;;;13.88;4.03;;;;;;;-143.49;100.00;65027.28;5093693;28;20047;-68
2023/07/06 04:10:00;;;;;;;17.63;4.22;;;;;;;-143.49;100.00;65027.28;5093876;28;20036;-69
2023/07/06 04:12:26;;;;;;;14.15;4.78;;;;;;;-143.49;100.00;65027.28;5093032;28;20027;-68
2023/07/06 04:14:51;;;;;;;19.35;3.97;;;;;;;-143.49;100.00;65027.28;5093568;28;20055;-68
2023/07/06 04:17:16;;;;;;;16.10;4.70;;;;;;;-143.49;100.00;65027.28;5093568;28;20031;-68
2023/07/06 04:19:42;;;;;;;12.80;4.20;;;;;;;-143.49;100.00;65027.28;5093382;28;20067;-69
2023/07/06 04:22:07;;;;;;;17.35;4.35;;;;;;;-143.49;100.00;65027.28;5093369;28;20052;-69
2023/07/06 04:24:34;;;;;;;18.77;5.10;;;;;;;-143.49;100.00;65027.28;5093430;28;20028;-69
2023/07/06 04:27:00;;;;;;;19.30;4.65;;;;;;;-143.49;100.00;65027.28;5093468;28;20024;-69
2023/07/06 04:29:28;;;;;;;15.85;4.53;;;;;;;-143.49;100.00;65027.28;5075261;28;20440;-69
2023/07/06 04:31:55;;;;;;;20.63;4.88;;;;;;;-143.49;100.00;65027.28;5075314;28;20024;-68
2023/07/06 04:34:21;;;;;;;14.57;4.13;;;;;;;-143.49;100.00;65027.28;5093236;28;20420;-69
2023/07/06 04:36:47;;;;;;;15.73;4.68;;;;;;;-143.49;100.00;65027.28;5075120;28;20020;-68
2023/07/06 04:39:12;;;;;;;14.45;4.53;;;;;;;-143.49;100.00;65027.28;5093120;28;20027;-68
2023/07/06 04:41:38;;;;;;;14.45;4.10;;;;;;;-143.49;100.00;65027.28;5075135;28;20031;-69
2023/07/06 04:44:04;;;;;;;16.55;4.28;;;;;;;-143.49;100.00;65027.28;5092911;28;20024;-68
2023/07/06 04:46:29;;;;;;;14.77;4.43;;;;;;;-143.49;100.00;65027.28;5093268;28;20050;-68
2023/07/06 04:48:55;;;;;;;22.63;4.65;;;;;;;-143.49;100.00;65027.28;5093073;28;20027;-70
2023/07/06 04:51:20;;;;;;;10.15;4.10;;;;;;;-143.49;100.00;65027.28;5074970;28;20024;-69
2023/07/06 04:53:47;;;;;;;22.13;4.50;;;;;;;-143.49;100.00;65027.28;5093101;28;20052;-69
2023/07/06 04:56:12;;;;;;;14.15;4.07;;;;;;;-143.49;100.00;65027.28;5093013;28;20031;-70
2023/07/06 04:58:38;;;;;;;17.15;4.47;;;;;;;-143.49;100.00;65027.28;5093147;28;20388;-69
2023/07/06 05:01:07;;;;;;;15.30;4.47;;;;;;;-143.49;100.00;65027.28;5093001;28;20023;-69
2023/07/06 05:03:35;;;;;;;15.63;4.32;;;;;;;-143.49;100.00;65027.28;5092941;28;20102;-68
2023/07/06 05:06:09;;;;;;;21.65;4.78;;;;;;;-143.49;100.00;65027.28;5092930;28;20111;-68
2023/07/06 05:08:35;;;;;;;15.40;4.28;;;;;;;-143.49;100.00;65027.28;5092888;28;20080;-69
2023/07/06 05:11:04;;;;;;;17.55;4.80;;;;;;;-143.49;100.00;65027.28;5075770;28;20058;-69
2023/07/06 05:13:31;;;;;;;23.38;5.10;;;;;;;-143.49;100.00;65027.28;5092904;28;20020;-69
2023/07/06 05:15:56;;;;;;;18.17;4.72;;;;;;;-143.49;100.00;65027.28;5092861;28;20123;-68
2023/07/06 05:18:22;;;;;;;19.90;4.70;;;;;;;-143.49;100.00;65027.28;5092844;28;20099;-69
2023/07/06 05:20:49;;;;;;;20.50;4.90;;;;;;;-143.49;100.00;65027.28;5092643;28;20020;-69
2023/07/06 05:23:16;;;;;;;17.92;5.15;;;;;;;-143.49;100.00;65027.28;5095291;28;20032;-69
2023/07/06 05:25:41;;;;;;;17.60;4.97;;;;;;;-143.49;100.00;65027.28;5078446;28;20034;-68
2023/07/06 05:28:10;;;;;;;20.17;4.50;;;;;;;-143.49;100.00;65027.28;5096786;28;20024;-69
2023/07/06 05:30:36;;;;;;;19.75;4.95;;;;;;;-143.49;100.00;65027.28;5078370;28;20556;-68
2023/07/06 05:33:01;;;;;;;20.30;5.45;;;;;;;-143.49;100.00;65027.28;5096610;28;20132;-67
2023/07/06 05:35:27;;;;;;;20.92;5.45;;;;;;;-143.49;100.00;65027.28;5096499;28;20383;-68
2023/07/06 05:37:54;;;;;;;24.25;5.53;;;;;;;-143.49;100.00;65027.28;5096549;28;20471;-68
2023/07/06 05:40:19;;;;;;;20.00;5.20;;;;;;;-143.49;100.00;65027.28;5096421;28;20020;-68
2023/07/06 05:42:45;;;;;;;24.20;5.70;;;;;;;-143.49;100.00;65027.28;5096401;28;20464;-68
2023/07/06 05:45:10;;;;;;;22.25;5.65;;;;;;;-143.49;100.00;65027.28;5096286;28;20020;-69
2023/07/06 05:47:35;;;;;;;25.48;5.78;;;;;;;-143.49;100.00;65027.28;5096570;28;20051;-67
2023/07/06 05:50:01;;;;;;;19.27;5.00;;;;;;;-143.49;100.00;65027.28;5078146;28;20092;-68
2023/07/06 05:52:27;;;;;;;17.80;5.63;;;;;;;-143.49;100.00;65027.28;5078083;28;20463;-68
2023/07/06 05:54:53;;;;;;;16.15;5.25;;;;;;;-143.49;100.00;65027.28;5097248;28;20024;-69
2023/07/06 05:57:19;;;;;;;19.50;5.40;;;;;;;-143.49;100.00;65027.28;5097079;28;20046;-68
2023/07/06 05:59:46;;;;;;;20.60;5.50;;;;;;;-143.49;100.00;65027.28;5079034;28;20035;-70
2023/07/06 06:02:19;;;;;;;15.63;5.38;;;;;;;-143.49;100.00;65027.28;5078669;28;20139;-67
2023/07/06 06:04:47;;;;;;;17.15;5.47;;;;;;;-143.49;100.00;65027.28;5078687;28;20028;-69
2023/07/06 06:07:12;;;;;;;21.13;5.35;;;;;;;-143.49;100.00;65027.28;5078003;28;20440;-69
2023/07/06 06:09:38;;;;;;;24.23;5.68;;;;;;;-143.49;100.00;65027.28;5096079;28;20028;-68
2023/07/06 06:12:04;;;;;;;19.38;5.50;;;;;;;-143.49;100.00;65027.28;5095837;28;20525;-69
2023/07/06 06:14:30;;;;;;;25.80;5.35;;;;;;;-143.49;100.00;65027.28;5095880;28;20119;-69
2023/07/06 06:16:56;;;;;;;25.90;6.00;;;;;;;-143.49;100.00;65027.28;5095845;28;20020;-67
2023/07/06 06:19:22;;;;;;;23.60;6.07;;;;;;;-143.49;100.00;65027.28;5096099;28;20059;-69
2023/07/06 06:21:49;;;;;;;19.90;6.28;;;;;;;-143.49;100.00;65027.28;5096008;28;20108;-68
2023/07/06 06:24:15;;;;;;;20.65;6.43;;;;;;;-143.49;100.00;65027.28;5095556;28;20479;-69
2023/07/06 06:26:42;;;;;;;21.67;5.80;;;;;;;-143.49;100.00;65027.28;5077390;28;20059;-69
2023/07/06 06:29:09;;;;;;;15.45;5.88;;;;;;;-143.49;100.00;65027.28;5077323;28;20028;-68
2023/07/06 06:31:42;;;;;;;20.45;5.65;;;;;;;-143.49;100.00;65027.28;5077427;28;20024;-68
2023/07/06 06:34:08;;;;;;;19.83;5.43;;;;;;;-143.49;100.00;65027.28;5094690;28;20483;-68
2023/07/06 06:36:33;;;;;;;19.02;5.43;;;;;;;-143.49;100.00;65027.28;5077278;28;20061;-70
2023/07/06 06:38:59;;;;;;;16.55;5.30;;;;;;;-143.49;100.00;65027.28;5095364;28;20028;-70
2023/07/06 06:41:24;;;;;;;19.92;6.30;;;;;;;-143.49;100.00;65027.28;5095082;28;20031;-72
2023/07/06 06:43:49;;;;;;;27.13;5.85;;;;;;;-143.49;100.00;65027.28;5095025;28;20085;-71
2023/07/06 06:46:15;;;;;;;18.50;6.40;;;;;;;-143.49;100.00;65027.28;5095329;28;20427;-71
2023/07/06 06:48:41;;;;;;;27.65;6.10;;;;;;;-143.49;100.00;65027.28;5095176;28;20024;-68
2023/07/06 06:51:10;;;;;;;20.30;6.30;;;;;;;-143.49;100.00;65027.28;5095377;28;20502;-68
2023/07/06 06:53:39;;;;;;;21.23;6.55;;;;;;;-143.49;100.00;65027.28;5095035;28;20020;-68
2023/07/06 06:56:06;;;;;;;22.25;7.05;;;;;;;-143.49;100.00;65027.28;5095551;28;20096;-69
2023/07/06 06:58:32;;;;;;;26.85;7.85;;;;;;;-143.49;100.00;65027.28;5076878;28;20031;-71
2023/07/06 07:00:59;;;;;;;26.63;8.30;;;;;;;-143.49;100.00;65027.28;5094960;28;20429;-70
2023/07/06 07:03:27;;;;;;;23.73;8.20;;;;;;;-143.49;100.00;65027.28;5077870;28;20024;-70
2023/07/06 07:06:11;;;;;;;22.15;8.23;;;;;;;-143.49;100.00;65027.28;5077603;28;20443;-70
2023/07/06 07:08:41;;;;;;;24.25;8.73;;;;;;;-143.49;100.00;65027.28;5095309;28;20047;-70
2023/07/06 07:11:07;;;;;;;25.13;8.50;;;;;;;-143.49;100.00;65027.28;5094972;28;20019;-70
2023/07/06 07:13:35;;;;;;;26.20;9.68;;;;;;;-143.49;100.00;65027.28;5096569;28;20035;-69
2023/07/06 07:16:02;;;;;;;18.00;8.85;;;;;;;-143.49;100.00;65027.28;5098890;28;20065;-70
2023/07/06 07:18:28;;;;;;;31.15;9.55;;;;;;;-143.49;100.00;65027.28;5097776;28;20426;-69
2023/07/06 07:20:54;;;;;;;24.65;9.20;;;;;;;-143.49;100.00;65027.28;5080210;28;20016;-69
2023/07/06 07:23:24;;;;;;;21.20;8.10;;;;;;;-143.49;100.00;65027.28;5099538;28;20150;-70
2023/07/06 07:25:51;;;;;;;19.92;8.23;;;;;;;-143.49;100.00;65027.28;5080937;28;20020;-70
2023/07/06 07:28:17;;;;;;;22.75;7.63;;;;;;;-143.49;100.00;65027.28;5098703;28;20023;-70
2023/07/06 07:31:03;;;;;;;19.50;6.47;;;;;;;-143.49;100.00;65027.28;5097584;28;20128;-68
2023/07/06 07:33:28;;;;;;;20.58;7.63;;;;;;;-143.49;100.00;65027.28;5098345;28;20081;-70
2023/07/06 07:35:59;;;;;;;17.35;7.05;;;;;;;-143.49;100.00;65027.28;5097998;28;20028;-69
2023/07/06 07:38:24;;;;;;;18.40;6.85;;;;;;;-143.49;100.00;65027.28;5097883;28;20098;-70
2023/07/06 07:40:58;;;;;;;20.55;7.55;;;;;;;-143.49;100.00;65027.28;5078069;28;20075;-69
2023/07/06 07:43:26;;;;;;;14.88;6.28;;;;;;;-143.49;100.00;65027.28;5094707;28;20475;-69
2023/07/06 07:46:06;;;;;;;19.90;5.95;;;;;;;-143.49;100.00;65027.28;5076310;28;20031;-70
2023/07/06 07:48:38;;;;;;;14.77;6.50;;;;;;;-143.49;100.00;65027.28;5094465;28;20024;-69
2023/07/06 07:51:09;;;;;;;17.95;6.00;;;;;;;-143.49;100.00;65027.28;5076052;28;20016;-68
2023/07/06 07:53:37;;;;;;;13.68;5.32;;;;;;;-143.49;100.00;65027.28;5076009;28;20605;-70
2023/07/06 07:56:06;;;;;;;15.20;6.00;;;;;;;-143.49;100.00;65027.28;5094060;28;20507;-69
2023/07/06 07:58:33;;;;;;;16.58;5.22;;;;;;;-143.49;100.00;65027.28;5093887;28;20024;-70
2023/07/06 08:01:00;;;;;;;11.80;4.72;;;;;;;-143.49;100.00;65027.28;5093897;28;20020;-70
2023/07/06 08:03:27;;;;;;;13.70;5.15;;;;;;;-143.49;100.00;65027.28;5075585;28;20483;-69
2023/07/06 08:05:57;;;;;;;16.67;4.97;;;;;;;-143.49;100.00;65027.28;5093798;28;20024;-69
2023/07/06 08:08:23;;;;;;;13.63;4.82;;;;;;;-143.49;100.00;65027.28;5075345;28;20052;-69
2023/07/06 08:10:51;;;;;;;11.90;4.78;;;;;;;-143.49;100.00;65027.28;5093568;28;20491;-70
2023/07/06 08:13:20;;;;;;;10.75;4.32;;;;;;;-143.49;100.00;65027.28;5093468;28;20428;-70
2023/07/06 08:15:47;;;;;;;16.95;5.22;;;;;;;-143.49;100.00;65027.28;5075144;28;20038;-69
2023/07/06 08:18:13;;;;;;;16.10;4.80;;;;;;;-143.49;100.00;65027.28;5093369;28;20024;-70
2023/07/06 08:20:39;;;;;;;19.27;4.85;;;;;;;-143.49;100.00;65027.28;5093508;28;20081;-69
2023/07/06 08:23:07;;;;;;;17.65;4.40;;;;;;;-143.49;100.00;65027.28;5093219;28;20065;-68
2023/07/06 08:25:40;;;;;;;10.27;4.57;;;;;;;-143.49;100.00;65027.28;5093317;28;20028;-68
2023/07/06 08:28:08;;;;;;;14.30;4.95;;;;;;;-143.49;100.00;65027.28;5093314;28;20028;-69
2023/07/06 08:30:34;;;;;;;16.25;5.53;;;;;;;-143.49;100.00;65027.28;5075274;28;20031;-68
2023/07/06 08:33:00;;;;;;;16.98;4.78;;;;;;;-143.49;100.00;65027.28;5093827;28;20081;-69
2023/07/06 08:35:28;;;;;;;18.52;4.97;;;;;;;-143.49;100.00;65027.28;5075425;28;20024;-70
2023/07/06 08:37:54;;;;;;;14.02;5.13;;;;;;;-143.49;100.00;65027.28;5093307;28;20080;-70
2023/07/06 08:40:24;;;;;;;15.57;5.35;;;;;;;-143.49;100.00;65027.28;5074791;28;20020;-69
2023/07/06 08:42:49;;;;;;;15.98;5.32;;;;;;;-143.49;100.00;65027.28;5074704;28;20027;-70
2023/07/06 08:45:19;;;;;;;13.45;4.50;;;;;;;-143.49;100.00;65027.28;5092882;28;20023;-69
2023/07/06 08:47:47;;;;;;;13.85;4.90;;;;;;;-143.49;100.00;65027.28;5074786;28;20047;-70
2023/07/06 08:50:16;;;;;;;11.35;4.78;;;;;;;-143.49;100.00;65027.28;5092824;28;20034;-69
2023/07/06 08:52:42;;;;;;;17.38;5.03;;;;;;;-143.49;100.00;65027.28;5093062;28;20487;-71
2023/07/06 08:55:13;;;;;;;15.68;5.15;;;;;;;-143.49;100.00;65027.28;5092693;28;20048;-70
2023/07/06 08:57:39;;;;;;;13.35;4.70;;;;;;;-143.49;100.00;65027.28;5092325;28;20028;-73
2023/07/06 09:00:21;;;;;;;13.32;4.50;;;;;;;-143.49;100.00;65027.28;5092772;28;20435;-72
2023/07/06 09:02:49;;;;;;;15.70;4.38;;;;;;;-143.49;100.00;65027.28;5092919;28;20111;-71
2023/07/06 09:05:16;;;;;;;9.60;3.85;;;;;;;-143.49;100.00;65027.28;5093196;28;20464;-71
2023/07/06 09:07:44;;;;;;;13.57;4.30;;;;;;;-143.49;100.00;65027.28;5093589;28;20063;-71
2023/07/06 09:10:23;;;;;;;14.38;5.15;;;;;;;-143.49;100.00;65027.28;5074988;28;20035;-72
2023/07/06 09:12:49;;;;;;;16.40;4.75;;;;;;;-143.49;100.00;65027.28;5093501;28;20107;-71
2023/07/06 09:15:19;;;;;;;15.25;5.18;;;;;;;-143.49;100.00;65027.28;5075123;28;20020;-72
2023/07/06 09:17:47;;;;;;;14.25;4.75;;;;;;;-143.49;100.00;65027.28;5093181;28;20443;-70
2023/07/06 09:20:16;;;;;;;15.45;5.13;;;;;;;-143.49;100.00;65027.28;5093395;28;20345;-72
2023/07/06 09:22:43;;;;;;;17.55;5.28;;;;;;;-143.49;100.00;65027.28;5093195;28;20103;-72
2023/07/06 09:25:19;;;;;;;12.27;4.63;;;;;;;-143.49;100.00;65027.28;5075018;28;20489;-71
2023/07/06 09:27:49;;;;;;;13.00;4.65;;;;;;;-143.49;100.00;65027.28;5093086;28;20024;-69
2023/07/06 09:30:32;;;;;;;13.30;5.15;;;;;;;-143.49;100.00;65027.28;5092830;28;20498;-70
2023/07/06 09:33:06;;;;;;;16.65;4.78;;;;;;;-143.49;100.00;65027.28;5093609;28;20416;-68
2023/07/06 09:35:35;;;;;;;12.55;4.30;;;;;;;-143.49;100.00;65027.28;5093207;28;20138;-69
2023/07/06 09:38:02;;;;;;;13.82;4.35;;;;;;;-143.49;100.00;65027.28;5092994;28;20024;-71
2023/07/06 09:40:29;;;;;;;8.23;3.15;;;;;;;-143.49;100.00;65027.28;5074983;28;20024;-72
2023/07/06 09:42:54;;;;;;;15.60;3.30;;;;;;;-143.49;100.00;65027.28;5092859;28;20030;-73
2023/07/06 09:45:26;;;;;;;10.07;3.30;;;;;;;-143.49;100.00;65027.28;5093051;28;20099;-73
2023/07/06 09:47:55;;;;;;;11.15;3.78;;;;;;;-143.49;100.00;65027.28;5093050;28;20023;-74
2023/07/06 09:50:27;;;;;;;12.73;3.83;;;;;;;-143.49;100.00;65027.28;5092690;28;20367;-76
2023/07/06 09:52:53;;;;;;;10.23;4.22;;;;;;;-143.49;100.00;65027.28;5091428;28;20481;-73
2023/07/06 09:55:29;;;;;;;12.45;4.07;;;;;;;-143.49;100.00;65027.28;5092228;28;20024;-73
2023/07/06 09:57:55;;;;;;;15.45;4.15;;;;;;;-143.49;100.00;65027.28;5074747;28;20467;-71
2023/07/06 10:00:29;;;;;;;11.77;3.97;;;;;;;-143.49;100.00;65027.28;5094563;28;20116;-71
2023/07/06 10:03:08;;;;;;;7.75;3.47;;;;;;;-143.49;100.00;65027.28;5095239;28;20020;-70
2023/07/06 10:05:45;;;;;;;9.48;3.25;;;;;;;-143.49;100.00;65027.28;5094401;28;20028;-70
2023/07/06 10:08:20;;;;;;;14.68;3.35;;;;;;;-143.49;100.00;65027.28;5094104;28;20048;-69
2023/07/06 10:11:15;;;;;;;8.57;3.00;;;;;;;-143.49;100.00;65027.28;5096676;28;20028;-71
2023/07/06 10:14:09;;;;;;;11.32;3.13;;;;;;;-143.49;100.00;65027.28;5080212;28;20036;-70
2023/07/06 10:16:37;;;;;;;14.43;3.60;;;;;;;-143.49;100.00;65027.28;5098246;28;20531;-69
2023/07/06 10:19:11;;;;;;;8.35;3.25;;;;;;;-143.49;100.00;65027.28;5098889;28;20450;-71
2023/07/06 10:21:44;;;;;;;10.40;3.10;;;;;;;-143.49;100.00;65027.28;5097142;28;20030;-70
2023/07/06 10:24:15;;;;;;;11.93;3.17;;;;;;;-143.49;100.00;65027.28;5096514;28;20069;-70
2023/07/06 10:26:48;;;;;;;11.60;3.03;;;;;;;-143.49;100.00;65027.28;5078501;28;20383;-71
2023/07/06 10:29:18;;;;;;;14.80;3.78;;;;;;;-143.49;100.00;65027.28;5096612;28;20027;-71
2023/07/06 10:31:52;;;;;;;10.45;3.17;;;;;;;-143.49;100.00;65027.28;5078728;28;20035;-69
2023/07/06 10:34:22;;;;;;;9.63;3.33;;;;;;;-143.49;100.00;65027.28;5098362;28;20020;-70
2023/07/06 10:36:48;;;;;;;11.32;3.45;;;;;;;-143.49;100.00;65027.28;5097738;28;20412;-69
2023/07/06 10:39:45;;;;;;;15.35;3.50;;;;;;;-143.49;100.00;65027.28;5096880;28;20092;-70
2023/07/06 10:42:26;;;;;;;11.05;4.07;;;;;;;-143.49;100.00;65027.28;5078559;28;20119;-69
2023/07/06 10:44:55;;;;;;;16.63;3.53;;;;;;;-143.49;100.00;65027.28;5079848;28;20157;-70
2023/07/06 10:47:33;;;;;;;14.55;3.83;;;;;;;-143.49;100.00;65027.28;5079894;28;20111;-68
2023/07/06 10:50:07;;;;;;;12.25;3.67;;;;;;;-143.49;100.00;65027.28;5077452;28;20161;-70
2023/07/06 10:52:51;;;;;;;11.68;3.42;;;;;;;-143.49;100.00;65027.28;5077618;28;20073;-68
2023/07/06 10:55:25;;;;;;;11.35;2.90;;;;;;;-143.49;100.00;65027.28;5095701;28;20024;-71
2023/07/06 10:57:57;;;;;;;6.60;2.58;;;;;;;-143.49;100.00;65027.28;5096787;28;20024;-70
2023/07/06 11:00:35;;;;;;;6.75;2.50;;;;;;;-143.49;100.00;65027.28;5096877;28;20030;-69
2023/07/06 11:03:02;;;;;;;8.77;2.50;;;;;;;-143.49;100.00;65027.28;5095773;28;20410;-71
2023/07/06 11:05:32;;;;;;;10.63;2.38;;;;;;;-143.49;100.00;65027.28;5095944;28;20028;-72
2023/07/06 11:08:11;;;;;;;7.35;2.30;;;;;;;-143.49;100.00;65027.28;5078067;28;20408;-70